sensor_id;sensor_type;location;lat;lon;timestamp;temperature;humidity
40972;DHT22;26701;47.408;19.174;2023-03-01T00:01:53;7.30;96.60
40972;DHT22;26701;47.408;19.174;2023-03-01T00:04:19;7.20;96.50
40972;DHT22;26701;47.408;19.174;2023-03-01T00:09:15;7.20;96.50
40972;DHT22;26701;47.408;19.174;2023-03-01T00:11:41;7.40;96.50
40972;DHT22;26701;47.408;19.174;2023-03-01T00:16:40;7.00;96.50
40972;DHT22;26701;47.408;19.174;2023-03-01T00:19:12;7.00;96.60
40972;DHT22;26701;47.408;19.174;2023-03-01T00:21:37;7.40;96.60
40972;DHT22;26701;47.408;19.174;2023-03-01T00:24:03;6.90;96.50
40972;DHT22;26701;47.408;19.174;2023-03-01T00:26:29;7.10;95.40
40972;DHT22;26701;47.408;19.174;2023-03-01T00:28:57;7.10;76.50
40972;DHT22;26701;47.408;19.174;2023-03-01T00:31:25;6.60;96.60
40972;DHT22;26701;47.408;19.174;2023-03-01T00:33:55;7.50;96.80
40972;DHT22;26701;47.408;19.174;2023-03-01T00:36:24;7.00;96.80
40972;DHT22;26701;47.408;19.174;2023-03-01T00:38:50;7.00;96.80
40972;DHT22;26701;47.408;19.174;2023-03-01T00:41:17;7.10;76.60
40972;DHT22;26701;47.408;19.174;2023-03-01T00:43:44;7.10;96.80
40972;DHT22;26701;47.408;19.174;2023-03-01T00:46:16;6.80;96.90
40972;DHT22;26701;47.408;19.174;2023-03-01T00:48:42;6.70;96.90
40972;DHT22;26701;47.408;19.174;2023-03-01T00:53:36;7.20;96.90
40972;DHT22;26701;47.408;19.174;2023-03-01T00:56:03;7.20;97.00
40972;DHT22;26701;47.408;19.174;2023-03-01T01:03:22;6.70;96.40
40972;DHT22;26701;47.408;19.174;2023-03-01T01:05:51;7.00;78.30
40972;DHT22;26701;47.408;19.174;2023-03-01T01:08:17;7.20;96.60
40972;DHT22;26701;47.408;19.174;2023-03-01T01:10:44;7.50;96.60
40972;DHT22;26701;47.408;19.174;2023-03-01T01:13:10;5.90;75.70
40972;DHT22;26701;47.408;19.174;2023-03-01T01:15:36;6.80;96.60
40972;DHT22;26701;47.408;19.174;2023-03-01T01:18:02;7.40;96.80
40972;DHT22;26701;47.408;19.174;2023-03-01T01:20:28;7.20;96.80
40972;DHT22;26701;47.408;19.174;2023-03-01T01:22:54;7.20;96.90
40972;DHT22;26701;47.408;19.174;2023-03-01T01:25:20;6.90;88.70
40972;DHT22;26701;47.408;19.174;2023-03-01T01:30:12;7.10;97.00
40972;DHT22;26701;47.408;19.174;2023-03-01T01:32:39;7.20;96.90
40972;DHT22;26701;47.408;19.174;2023-03-01T01:35:05;6.80;96.70
40972;DHT22;26701;47.408;19.174;2023-03-01T01:40:02;7.30;96.80
40972;DHT22;26701;47.408;19.174;2023-03-01T01:42:30;7.60;96.90
40972;DHT22;26701;47.408;19.174;2023-03-01T01:45:24;7.60;96.80
40972;DHT22;26701;47.408;19.174;2023-03-01T01:47:52;7.40;90.30
40972;DHT22;26701;47.408;19.174;2023-03-01T01:50:18;7.70;96.80
40972;DHT22;26701;47.408;19.174;2023-03-01T01:52:45;6.80;96.60
40972;DHT22;26701;47.408;19.174;2023-03-01T01:55:22;6.90;96.70
40972;DHT22;26701;47.408;19.174;2023-03-01T01:57:53;7.10;76.60
40972;DHT22;26701;47.408;19.174;2023-03-01T02:00:23;7.40;96.70
40972;DHT22;26701;47.408;19.174;2023-03-01T02:02:52;7.10;76.30
40972;DHT22;26701;47.408;19.174;2023-03-01T02:10:32;7.40;97.30
40972;DHT22;26701;47.408;19.174;2023-03-01T02:15:26;7.10;97.30
40972;DHT22;26701;47.408;19.174;2023-03-01T02:17:53;7.00;78.30
40972;DHT22;26701;47.408;19.174;2023-03-01T02:23:22;7.00;78.00
40972;DHT22;26701;47.408;19.174;2023-03-01T02:26:27;7.00;97.40
40972;DHT22;26701;47.408;19.174;2023-03-01T02:28:55;6.70;97.50
40972;DHT22;26701;47.408;19.174;2023-03-01T02:31:21;6.90;78.40
40972;DHT22;26701;47.408;19.174;2023-03-01T02:34:07;6.80;93.50
40972;DHT22;26701;47.408;19.174;2023-03-01T02:36:44;6.90;93.10
40972;DHT22;26701;47.408;19.174;2023-03-01T02:39:15;6.70;97.50
40972;DHT22;26701;47.408;19.174;2023-03-01T02:41:47;6.90;96.30
40972;DHT22;26701;47.408;19.174;2023-03-01T02:44:13;6.80;97.50
40972;DHT22;26701;47.408;19.174;2023-03-01T02:46:58;6.50;97.70
40972;DHT22;26701;47.408;19.174;2023-03-01T02:49:32;7.00;78.90
40972;DHT22;26701;47.408;19.174;2023-03-01T02:57:27;6.60;97.70
40972;DHT22;26701;47.408;19.174;2023-03-01T02:59:55;7.00;78.80
40972;DHT22;26701;47.408;19.174;2023-03-01T03:02:29;7.50;97.90
40972;DHT22;26701;47.408;19.174;2023-03-01T03:05:16;7.00;98.00
40972;DHT22;26701;47.408;19.174;2023-03-01T03:07:44;7.00;79.20
40972;DHT22;26701;47.408;19.174;2023-03-01T03:10:26;7.00;79.30
40972;DHT22;26701;47.408;19.174;2023-03-01T03:12:54;6.60;97.90
40972;DHT22;26701;47.408;19.174;2023-03-01T03:15:22;7.00;79.40
40972;DHT22;26701;47.408;19.174;2023-03-01T03:17:48;6.70;97.90
40972;DHT22;26701;47.408;19.174;2023-03-01T03:20:17;7.00;79.20
40972;DHT22;26701;47.408;19.174;2023-03-01T03:22:45;7.00;79.50
40972;DHT22;26701;47.408;19.174;2023-03-01T03:25:10;7.10;93.00
40972;DHT22;26701;47.408;19.174;2023-03-01T03:27:38;7.30;97.90
40972;DHT22;26701;47.408;19.174;2023-03-01T03:30:06;6.90;97.70
40972;DHT22;26701;47.408;19.174;2023-03-01T03:32:39;7.00;79.10
40972;DHT22;26701;47.408;19.174;2023-03-01T03:35:07;7.00;79.20
40972;DHT22;26701;47.408;19.174;2023-03-01T03:37:36;7.00;79.20
40972;DHT22;26701;47.408;19.174;2023-03-01T03:40:20;6.80;97.70
40972;DHT22;26701;47.408;19.174;2023-03-01T03:42:45;6.90;92.00
40972;DHT22;26701;47.408;19.174;2023-03-01T03:45:11;7.40;97.90
40972;DHT22;26701;47.408;19.174;2023-03-01T03:52:29;7.10;97.70
40972;DHT22;26701;47.408;19.174;2023-03-01T03:54:55;6.90;97.80
40972;DHT22;26701;47.408;19.174;2023-03-01T04:02:13;6.50;97.60
40972;DHT22;26701;47.408;19.174;2023-03-01T04:04:50;7.00;82.90
40972;DHT22;26701;47.408;19.174;2023-03-01T04:09:43;7.00;97.90
40972;DHT22;26701;47.408;19.174;2023-03-01T04:12:09;6.40;97.70
40972;DHT22;26701;47.408;19.174;2023-03-01T04:17:01;6.90;97.80
40972;DHT22;26701;47.408;19.174;2023-03-01T04:22:04;6.70;97.80
40972;DHT22;26701;47.408;19.174;2023-03-01T04:24:37;6.90;79.20
40972;DHT22;26701;47.408;19.174;2023-03-01T04:29:29;6.80;97.80
40972;DHT22;26701;47.408;19.174;2023-03-01T04:31:55;6.50;97.70
40972;DHT22;26701;47.408;19.174;2023-03-01T04:34:21;7.20;97.90
40972;DHT22;26701;47.408;19.174;2023-03-01T04:39:13;7.50;98.00
40972;DHT22;26701;47.408;19.174;2023-03-01T04:41:40;7.10;97.90
40972;DHT22;26701;47.408;19.174;2023-03-01T04:44:07;6.70;92.20
40972;DHT22;26701;47.408;19.174;2023-03-01T04:49:01;7.10;98.10
40972;DHT22;26701;47.408;19.174;2023-03-01T04:51:28;7.60;98.10
40972;DHT22;26701;47.408;19.174;2023-03-01T04:53:54;6.90;79.70
40972;DHT22;26701;47.408;19.174;2023-03-01T04:56:20;6.90;98.00
40972;DHT22;26701;47.408;19.174;2023-03-01T05:03:44;6.40;97.90
40972;DHT22;26701;47.408;19.174;2023-03-01T05:08:40;6.70;98.10
40972;DHT22;26701;47.408;19.174;2023-03-01T05:11:06;6.70;98.00
40972;DHT22;26701;47.408;19.174;2023-03-01T05:16:02;7.10;98.10
40972;DHT22;26701;47.408;19.174;2023-03-01T05:18:30;7.20;98.10
40972;DHT22;26701;47.408;19.174;2023-03-01T05:21:07;6.80;79.50
40972;DHT22;26701;47.408;19.174;2023-03-01T05:26:01;6.90;98.10
40972;DHT22;26701;47.408;19.174;2023-03-01T05:28:28;7.40;98.30
40972;DHT22;26701;47.408;19.174;2023-03-01T05:30:54;7.30;98.30
40972;DHT22;26701;47.408;19.174;2023-03-01T05:33:20;6.40;98.30
40972;DHT22;26701;47.408;19.174;2023-03-01T05:35:48;6.90;79.60
40972;DHT22;26701;47.408;19.174;2023-03-01T05:40:45;6.70;90.60
40972;DHT22;26701;47.408;19.174;2023-03-01T05:43:13;6.80;98.50
40972;DHT22;26701;47.408;19.174;2023-03-01T05:45:40;6.50;79.60
40972;DHT22;26701;47.408;19.174;2023-03-01T05:50:35;7.20;98.50
40972;DHT22;26701;47.408;19.174;2023-03-01T05:53:04;6.90;79.80
40972;DHT22;26701;47.408;19.174;2023-03-01T05:55:34;6.70;98.50
40972;DHT22;26701;47.408;19.174;2023-03-01T05:58:06;6.90;79.70
40972;DHT22;26701;47.408;19.174;2023-03-01T06:00:32;6.50;98.50
40972;DHT22;26701;47.408;19.174;2023-03-01T06:02:59;7.20;98.80
40972;DHT22;26701;47.408;19.174;2023-03-01T06:07:52;7.00;79.90
40972;DHT22;26701;47.408;19.174;2023-03-01T06:10:19;7.10;86.40
40972;DHT22;26701;47.408;19.174;2023-03-01T06:12:45;7.20;98.70
40972;DHT22;26701;47.408;19.174;2023-03-01T06:15:13;7.20;98.70
40972;DHT22;26701;47.408;19.174;2023-03-01T06:17:41;7.20;98.70
40972;DHT22;26701;47.408;19.174;2023-03-01T06:20:13;7.10;79.40
40972;DHT22;26701;47.408;19.174;2023-03-01T06:22:40;6.70;98.50
40972;DHT22;26701;47.408;19.174;2023-03-01T06:25:06;7.20;79.40
40972;DHT22;26701;47.408;19.174;2023-03-01T06:27:32;7.60;98.50
40972;DHT22;26701;47.408;19.174;2023-03-01T06:32:24;7.20;83.10
40972;DHT22;26701;47.408;19.174;2023-03-01T06:37:17;7.20;98.20
40972;DHT22;26701;47.408;19.174;2023-03-01T06:42:09;7.30;91.80
40972;DHT22;26701;47.408;19.174;2023-03-01T06:44:37;7.40;98.30
40972;DHT22;26701;47.408;19.174;2023-03-01T06:47:04;7.50;79.10
40972;DHT22;26701;47.408;19.174;2023-03-01T06:49:30;7.40;98.10
40972;DHT22;26701;47.408;19.174;2023-03-01T06:51:57;7.80;94.20
40972;DHT22;26701;47.408;19.174;2023-03-01T06:54:23;7.90;98.20
40972;DHT22;26701;47.408;19.174;2023-03-01T06:56:49;7.40;78.80
40972;DHT22;26701;47.408;19.174;2023-03-01T06:59:16;7.50;78.40
40972;DHT22;26701;47.408;19.174;2023-03-01T07:01:42;7.00;97.90
40972;DHT22;26701;47.408;19.174;2023-03-01T07:13:53;7.60;98.00
40972;DHT22;26701;47.408;19.174;2023-03-01T07:16:19;7.40;92.20
40972;DHT22;26701;47.408;19.174;2023-03-01T07:18:46;7.40;96.20
40972;DHT22;26701;47.408;19.174;2023-03-01T07:21:14;7.90;77.40
40972;DHT22;26701;47.408;19.174;2023-03-01T07:23:40;7.50;97.30
40972;DHT22;26701;47.408;19.174;2023-03-01T07:28:32;8.00;97.10
40972;DHT22;26701;47.408;19.174;2023-03-01T07:31:04;7.90;97.10
40972;DHT22;26701;47.408;19.174;2023-03-01T07:33:30;7.70;97.00
40972;DHT22;26701;47.408;19.174;2023-03-01T07:36:01;8.60;96.10
40972;DHT22;26701;47.408;19.174;2023-03-01T07:38:28;8.30;96.90
40972;DHT22;26701;47.408;19.174;2023-03-01T07:41:00;8.40;75.70
40972;DHT22;26701;47.408;19.174;2023-03-01T07:43:27;8.60;96.30
40972;DHT22;26701;47.408;19.174;2023-03-01T07:45:53;8.40;96.30
40972;DHT22;26701;47.408;19.174;2023-03-01T07:50:45;9.30;96.50
40972;DHT22;26701;47.408;19.174;2023-03-01T07:55:37;9.60;96.00
40972;DHT22;26701;47.408;19.174;2023-03-01T08:00:29;9.20;95.10
40972;DHT22;26701;47.408;19.174;2023-03-01T08:02:59;9.50;72.50
40972;DHT22;26701;47.408;19.174;2023-03-01T08:07:51;10.10;95.00
40972;DHT22;26701;47.408;19.174;2023-03-01T08:10:17;9.80;94.50
40972;DHT22;26701;47.408;19.174;2023-03-01T08:12:43;10.20;94.80
40972;DHT22;26701;47.408;19.174;2023-03-01T08:15:09;9.30;94.50
40972;DHT22;26701;47.408;19.174;2023-03-01T08:17:35;9.90;92.50
40972;DHT22;26701;47.408;19.174;2023-03-01T08:22:28;9.40;94.40
40972;DHT22;26701;47.408;19.174;2023-03-01T08:24:53;9.60;94.50
40972;DHT22;26701;47.408;19.174;2023-03-01T08:27:21;9.80;78.10
40972;DHT22;26701;47.408;19.174;2023-03-01T08:32:13;10.50;94.30
40972;DHT22;26701;47.408;19.174;2023-03-01T08:34:39;10.70;94.30
40972;DHT22;26701;47.408;19.174;2023-03-01T08:39:31;10.90;93.90
40972;DHT22;26701;47.408;19.174;2023-03-01T08:44:23;10.70;93.50
40972;DHT22;26701;47.408;19.174;2023-03-01T08:46:50;10.80;86.90
40972;DHT22;26701;47.408;19.174;2023-03-01T08:49:18;11.00;88.10
40972;DHT22;26701;47.408;19.174;2023-03-01T08:51:45;11.00;67.40
40972;DHT22;26701;47.408;19.174;2023-03-01T08:54:16;11.10;92.50
40972;DHT22;26701;47.408;19.174;2023-03-01T08:56:43;11.20;92.50
40972;DHT22;26701;47.408;19.174;2023-03-01T08:59:11;10.60;92.50
40972;DHT22;26701;47.408;19.174;2023-03-01T09:04:03;10.80;92.50
40972;DHT22;26701;47.408;19.174;2023-03-01T09:06:33;11.30;92.50
40972;DHT22;26701;47.408;19.174;2023-03-01T09:09:00;11.80;92.30
40972;DHT22;26701;47.408;19.174;2023-03-01T09:11:26;11.50;92.30
40972;DHT22;26701;47.408;19.174;2023-03-01T09:16:20;11.80;91.90
40972;DHT22;26701;47.408;19.174;2023-03-01T09:18:50;12.10;91.50
40972;DHT22;26701;47.408;19.174;2023-03-01T09:23:45;12.30;74.00
40972;DHT22;26701;47.408;19.174;2023-03-01T09:26:13;12.70;64.90
40972;DHT22;26701;47.408;19.174;2023-03-01T09:31:08;12.70;90.40
40972;DHT22;26701;47.408;19.174;2023-03-01T09:36:02;14.00;90.20
40972;DHT22;26701;47.408;19.174;2023-03-01T09:40:55;13.40;89.20
40972;DHT22;26701;47.408;19.174;2023-03-01T09:46:43;14.50;88.90
40972;DHT22;26701;47.408;19.174;2023-03-01T09:49:15;13.50;79.70
40972;DHT22;26701;47.408;19.174;2023-03-01T09:51:43;14.50;88.40
40972;DHT22;26701;47.408;19.174;2023-03-01T09:56:44;13.70;87.40
40972;DHT22;26701;47.408;19.174;2023-03-01T10:09:38;15.10;60.20
40972;DHT22;26701;47.408;19.174;2023-03-01T10:12:10;15.30;59.80
40972;DHT22;26701;47.408;19.174;2023-03-01T10:14:42;15.50;76.70
40972;DHT22;26701;47.408;19.174;2023-03-01T10:17:18;15.20;85.30
40972;DHT22;26701;47.408;19.174;2023-03-01T10:19:47;15.50;85.70
40972;DHT22;26701;47.408;19.174;2023-03-01T10:22:19;14.90;84.90
40972;DHT22;26701;47.408;19.174;2023-03-01T10:24:47;15.90;85.70
40972;DHT22;26701;47.408;19.174;2023-03-01T10:29:54;16.40;84.40
40972;DHT22;26701;47.408;19.174;2023-03-01T10:34:48;16.30;82.50
40972;DHT22;26701;47.408;19.174;2023-03-01T10:37:19;17.00;82.00
40972;DHT22;26701;47.408;19.174;2023-03-01T10:40:09;17.10;81.20
40972;DHT22;26701;47.408;19.174;2023-03-01T10:42:52;17.30;58.20
40972;DHT22;26701;47.408;19.174;2023-03-01T10:50:36;18.30;80.00
40972;DHT22;26701;47.408;19.174;2023-03-01T10:53:04;18.30;79.50
40972;DHT22;26701;47.408;19.174;2023-03-01T10:55:39;18.80;79.60
40972;DHT22;26701;47.408;19.174;2023-03-01T10:58:21;18.60;53.20
40972;DHT22;26701;47.408;19.174;2023-03-01T11:03:28;19.20;52.90
40972;DHT22;26701;47.408;19.174;2023-03-01T11:08:46;19.90;53.80
40972;DHT22;26701;47.408;19.174;2023-03-01T11:16:27;20.10;76.10
40972;DHT22;26701;47.408;19.174;2023-03-01T11:18:57;19.50;50.70
40972;DHT22;26701;47.408;19.174;2023-03-01T11:21:25;19.30;51.20
40972;DHT22;26701;47.408;19.174;2023-03-01T11:23:53;18.80;76.70
40972;DHT22;26701;47.408;19.174;2023-03-01T11:28:50;18.40;51.80
40972;DHT22;26701;47.408;19.174;2023-03-01T11:31:18;18.20;52.40
40972;DHT22;26701;47.408;19.174;2023-03-01T11:34:05;18.90;78.60
40972;DHT22;26701;47.408;19.174;2023-03-01T11:36:49;18.20;78.50
40972;DHT22;26701;47.408;19.174;2023-03-01T11:39:31;17.60;78.60
40972;DHT22;26701;47.408;19.174;2023-03-01T11:42:20;17.70;54.80
40972;DHT22;26701;47.408;19.174;2023-03-01T11:44:48;17.60;53.40
40972;DHT22;26701;47.408;19.174;2023-03-01T11:56:16;17.30;74.10
40972;DHT22;26701;47.408;19.174;2023-03-01T11:59:20;17.10;77.60
40972;DHT22;26701;47.408;19.174;2023-03-01T12:02:16;16.70;81.10
40972;DHT22;26701;47.408;19.174;2023-03-01T12:10:32;17.00;81.10
40972;DHT22;26701;47.408;19.174;2023-03-01T12:13:17;17.20;55.70
40972;DHT22;26701;47.408;19.174;2023-03-01T12:29:42;17.80;80.70
40972;DHT22;26701;47.408;19.174;2023-03-01T12:39:44;17.70;56.00
40972;DHT22;26701;47.408;19.174;2023-03-01T12:42:28;17.20;80.70
40972;DHT22;26701;47.408;19.174;2023-03-01T12:48:30;17.50;74.60
40972;DHT22;26701;47.408;19.174;2023-03-01T12:51:04;17.80;82.10
40972;DHT22;26701;47.408;19.174;2023-03-01T12:53:35;17.50;56.60
40972;DHT22;26701;47.408;19.174;2023-03-01T12:56:07;17.80;81.60
40972;DHT22;26701;47.408;19.174;2023-03-01T13:01:25;17.70;81.70
40972;DHT22;26701;47.408;19.174;2023-03-01T13:12:44;18.50;59.30
40972;DHT22;26701;47.408;19.174;2023-03-01T13:17:52;18.70;80.50
40972;DHT22;26701;47.408;19.174;2023-03-01T13:20:21;19.00;55.40
40972;DHT22;26701;47.408;19.174;2023-03-01T13:23:01;19.50;80.70
40972;DHT22;26701;47.408;19.174;2023-03-01T13:38:48;20.40;77.70
40972;DHT22;26701;47.408;19.174;2023-03-01T13:41:16;20.50;77.10
40972;DHT22;26701;47.408;19.174;2023-03-01T13:43:44;21.00;76.60
40972;DHT22;26701;47.408;19.174;2023-03-01T13:46:19;21.70;51.70
40972;DHT22;26701;47.408;19.174;2023-03-01T13:48:50;22.70;76.00
40972;DHT22;26701;47.408;19.174;2023-03-01T13:51:24;22.50;51.00
40972;DHT22;26701;47.408;19.174;2023-03-01T13:53:52;22.80;50.50
40972;DHT22;26701;47.408;19.174;2023-03-01T13:56:36;22.60;73.80
40972;DHT22;26701;47.408;19.174;2023-03-01T13:59:05;23.10;74.00
40972;DHT22;26701;47.408;19.174;2023-03-01T14:01:34;23.00;73.20
40972;DHT22;26701;47.408;19.174;2023-03-01T14:04:02;23.40;48.70
40972;DHT22;26701;47.408;19.174;2023-03-01T14:06:31;23.60;73.20
40972;DHT22;26701;47.408;19.174;2023-03-01T14:09:02;23.50;48.30
40972;DHT22;26701;47.408;19.174;2023-03-01T14:17:25;24.10;72.40
40972;DHT22;26701;47.408;19.174;2023-03-01T14:19:58;24.30;72.20
40972;DHT22;26701;47.408;19.174;2023-03-01T14:22:26;23.80;71.40
40972;DHT22;26701;47.408;19.174;2023-03-01T14:24:59;25.10;71.40
40972;DHT22;26701;47.408;19.174;2023-03-01T14:27:36;27.20;68.90
40972;DHT22;26701;47.408;19.174;2023-03-01T14:30:26;29.50;66.40
40972;DHT22;26701;47.408;19.174;2023-03-01T14:33:01;29.60;41.10
40972;DHT22;26701;47.408;19.174;2023-03-01T14:35:30;27.60;42.50
40972;DHT22;26701;47.408;19.174;2023-03-01T14:37:56;26.00;67.60
40972;DHT22;26701;47.408;19.174;2023-03-01T14:40:32;25.60;68.50
40972;DHT22;26701;47.408;19.174;2023-03-01T14:43:00;27.10;60.20
40972;DHT22;26701;47.408;19.174;2023-03-01T14:45:27;26.60;44.60
40972;DHT22;26701;47.408;19.174;2023-03-01T14:47:55;30.30;64.40
40972;DHT22;26701;47.408;19.174;2023-03-01T14:50:32;31.00;39.50
40972;DHT22;26701;47.408;19.174;2023-03-01T14:53:04;31.90;62.50
40972;DHT22;26701;47.408;19.174;2023-03-01T14:57:57;31.10;61.90
40972;DHT22;26701;47.408;19.174;2023-03-01T15:00:28;30.60;62.10
40972;DHT22;26701;47.408;19.174;2023-03-01T15:02:56;32.00;62.90
40972;DHT22;26701;47.408;19.174;2023-03-01T15:05:33;31.20;60.90
40972;DHT22;26701;47.408;19.174;2023-03-01T15:08:00;31.60;61.10
40972;DHT22;26701;47.408;19.174;2023-03-01T15:10:30;31.40;60.80
40972;DHT22;26701;47.408;19.174;2023-03-01T15:13:09;32.00;60.20
40972;DHT22;26701;47.408;19.174;2023-03-01T15:15:38;30.60;41.60
40972;DHT22;26701;47.408;19.174;2023-03-01T15:18:19;30.10;61.20
40972;DHT22;26701;47.408;19.174;2023-03-01T15:20:47;28.80;61.50
40972;DHT22;26701;47.408;19.174;2023-03-01T15:23:34;27.20;63.00
40972;DHT22;26701;47.408;19.174;2023-03-01T15:26:01;25.20;63.90
40972;DHT22;26701;47.408;19.174;2023-03-01T15:28:32;23.80;65.40
40972;DHT22;26701;47.408;19.174;2023-03-01T15:33:37;22.40;43.90
40972;DHT22;26701;47.408;19.174;2023-03-01T15:39:00;20.90;46.20
40972;DHT22;26701;47.408;19.174;2023-03-01T15:41:27;20.60;73.00
40972;DHT22;26701;47.408;19.174;2023-03-01T15:44:00;20.40;52.10
40972;DHT22;26701;47.408;19.174;2023-03-01T15:46:31;20.00;74.70
40972;DHT22;26701;47.408;19.174;2023-03-01T15:49:27;19.00;49.00
40972;DHT22;26701;47.408;19.174;2023-03-01T15:54:24;18.10;50.80
40972;DHT22;26701;47.408;19.174;2023-03-01T15:56:51;18.00;51.30
40972;DHT22;26701;47.408;19.174;2023-03-01T16:01:44;17.30;52.10
40972;DHT22;26701;47.408;19.174;2023-03-01T16:04:14;17.20;72.10
40972;DHT22;26701;47.408;19.174;2023-03-01T16:06:55;16.70;53.00
40972;DHT22;26701;47.408;19.174;2023-03-01T16:09:24;16.60;53.60
40972;DHT22;26701;47.408;19.174;2023-03-01T16:19:09;15.30;82.20
40972;DHT22;26701;47.408;19.174;2023-03-01T16:36:17;14.30;59.10
40972;DHT22;26701;47.408;19.174;2023-03-01T16:38:43;13.70;87.90
40972;DHT22;26701;47.408;19.174;2023-03-01T16:41:14;14.00;59.70
40972;DHT22;26701;47.408;19.174;2023-03-01T16:46:18;13.90;59.80
40972;DHT22;26701;47.408;19.174;2023-03-01T16:48:44;13.50;86.90
40972;DHT22;26701;47.408;19.174;2023-03-01T16:51:10;13.70;88.30
40972;DHT22;26701;47.408;19.174;2023-03-01T16:53:37;13.30;89.00
40972;DHT22;26701;47.408;19.174;2023-03-01T16:56:05;13.70;89.60
40972;DHT22;26701;47.408;19.174;2023-03-01T17:01:07;12.90;63.20
40972;DHT22;26701;47.408;19.174;2023-03-01T17:06:04;12.70;63.10
40972;DHT22;26701;47.408;19.174;2023-03-01T17:08:31;13.00;90.40
40972;DHT22;26701;47.408;19.174;2023-03-01T17:11:06;13.20;90.50
40972;DHT22;26701;47.408;19.174;2023-03-01T17:13:32;12.80;90.60
40972;DHT22;26701;47.408;19.174;2023-03-01T17:20:50;12.40;91.30
40972;DHT22;26701;47.408;19.174;2023-03-01T17:25:45;11.90;91.70
40972;DHT22;26701;47.408;19.174;2023-03-01T17:28:12;11.80;65.70
40972;DHT22;26701;47.408;19.174;2023-03-01T17:30:42;11.70;65.90
40972;DHT22;26701;47.408;19.174;2023-03-01T17:38:03;11.80;92.70
40972;DHT22;26701;47.408;19.174;2023-03-01T17:42:57;11.60;82.30
40972;DHT22;26701;47.408;19.174;2023-03-01T17:45:23;10.60;90.40
40972;DHT22;26701;47.408;19.174;2023-03-01T17:52:41;10.70;89.10
40972;DHT22;26701;47.408;19.174;2023-03-01T17:55:08;11.20;93.30
40972;DHT22;26701;47.408;19.174;2023-03-01T17:57:34;10.90;93.40
40972;DHT22;26701;47.408;19.174;2023-03-01T18:02:25;11.00;93.30
40972;DHT22;26701;47.408;19.174;2023-03-01T18:07:18;10.50;89.00
40972;DHT22;26701;47.408;19.174;2023-03-01T18:09:44;11.00;81.50
40972;DHT22;26701;47.408;19.174;2023-03-01T18:14:36;10.40;90.90
40972;DHT22;26701;47.408;19.174;2023-03-01T18:19:31;10.40;69.00
40972;DHT22;26701;47.408;19.174;2023-03-01T18:21:57;10.80;93.40
40972;DHT22;26701;47.408;19.174;2023-03-01T18:24:23;10.00;93.10
40972;DHT22;26701;47.408;19.174;2023-03-01T18:26:49;10.70;93.40
40972;DHT22;26701;47.408;19.174;2023-03-01T18:34:08;10.20;93.70
40972;DHT22;26701;47.408;19.174;2023-03-01T18:36:34;10.40;93.90
40972;DHT22;26701;47.408;19.174;2023-03-01T18:39:02;9.90;70.30
40972;DHT22;26701;47.408;19.174;2023-03-01T18:41:29;9.60;92.00
40972;DHT22;26701;47.408;19.174;2023-03-01T18:43:55;10.10;94.10
40972;DHT22;26701;47.408;19.174;2023-03-01T18:48:48;9.80;90.40
40972;DHT22;26701;47.408;19.174;2023-03-01T18:51:18;9.70;70.50
40972;DHT22;26701;47.408;19.174;2023-03-01T18:56:11;9.60;91.60
40972;DHT22;26701;47.408;19.174;2023-03-01T19:08:27;9.90;77.50
40972;DHT22;26701;47.408;19.174;2023-03-01T19:10:56;9.60;94.50
40972;DHT22;26701;47.408;19.174;2023-03-01T19:15:48;9.20;86.00
40972;DHT22;26701;47.408;19.174;2023-03-01T19:25:33;9.10;94.70
40972;DHT22;26701;47.408;19.174;2023-03-01T19:27:59;8.70;94.90
40972;DHT22;26701;47.408;19.174;2023-03-01T19:30:25;8.90;95.00
40972;DHT22;26701;47.408;19.174;2023-03-01T19:35:18;9.10;95.10
40972;DHT22;26701;47.408;19.174;2023-03-01T19:42:36;8.80;95.10
40972;DHT22;26701;47.408;19.174;2023-03-01T19:45:02;8.90;95.30
40972;DHT22;26701;47.408;19.174;2023-03-01T19:49:54;9.00;95.60
40972;DHT22;26701;47.408;19.174;2023-03-01T19:52:20;9.00;95.60
40972;DHT22;26701;47.408;19.174;2023-03-01T19:54:46;8.60;95.60
40972;DHT22;26701;47.408;19.174;2023-03-01T19:57:12;8.80;95.80
40972;DHT22;26701;47.408;19.174;2023-03-01T20:04:30;8.00;86.00
40972;DHT22;26701;47.408;19.174;2023-03-01T20:09:24;8.00;96.60
40972;DHT22;26701;47.408;19.174;2023-03-01T20:11:50;7.30;96.50
40972;DHT22;26701;47.408;19.174;2023-03-01T20:16:42;7.90;96.70
40972;DHT22;26701;47.408;19.174;2023-03-01T20:21:34;7.80;96.60
40972;DHT22;26701;47.408;19.174;2023-03-01T20:33:54;7.30;96.60
40972;DHT22;26701;47.408;19.174;2023-03-01T20:36:20;7.50;96.80
40972;DHT22;26701;47.408;19.174;2023-03-01T20:41:12;7.10;76.30
40972;DHT22;26701;47.408;19.174;2023-03-01T20:46:08;7.30;97.80
40972;DHT22;26701;47.408;19.174;2023-03-01T20:51:07;6.70;97.90
40972;DHT22;26701;47.408;19.174;2023-03-01T20:53:34;7.10;97.50
40972;DHT22;26701;47.408;19.174;2023-03-01T21:03:26;6.40;87.80
40972;DHT22;26701;47.408;19.174;2023-03-01T21:05:56;6.70;78.30
40972;DHT22;26701;47.408;19.174;2023-03-01T21:08:22;6.30;98.00
40972;DHT22;26701;47.408;19.174;2023-03-01T21:10:51;6.50;94.70
40972;DHT22;26701;47.408;19.174;2023-03-01T21:18:33;6.60;78.20
40972;DHT22;26701;47.408;19.174;2023-03-01T21:23:28;6.80;89.70
40972;DHT22;26701;47.408;19.174;2023-03-01T21:26:22;6.60;98.10
40972;DHT22;26701;47.408;19.174;2023-03-01T21:28:48;6.20;85.60
40972;DHT22;26701;47.408;19.174;2023-03-01T21:31:20;6.30;78.60
40972;DHT22;26701;47.408;19.174;2023-03-01T21:33:50;6.30;98.10
40972;DHT22;26701;47.408;19.174;2023-03-01T21:38:44;6.30;98.10
40972;DHT22;26701;47.408;19.174;2023-03-01T21:41:12;6.30;96.90
40972;DHT22;26701;47.408;19.174;2023-03-01T21:43:39;6.10;98.20
40972;DHT22;26701;47.408;19.174;2023-03-01T21:51:07;6.10;98.30
40972;DHT22;26701;47.408;19.174;2023-03-01T21:53:34;6.00;98.30
40972;DHT22;26701;47.408;19.174;2023-03-01T21:56:00;6.00;79.00
40972;DHT22;26701;47.408;19.174;2023-03-01T21:58:27;5.90;98.30
40972;DHT22;26701;47.408;19.174;2023-03-01T22:00:54;5.90;79.20
40972;DHT22;26701;47.408;19.174;2023-03-01T22:05:57;5.80;79.20
40972;DHT22;26701;47.408;19.174;2023-03-01T22:08:24;6.00;98.50
40972;DHT22;26701;47.408;19.174;2023-03-01T22:10:50;5.20;98.30
40972;DHT22;26701;47.408;19.174;2023-03-01T22:13:17;5.20;98.50
40972;DHT22;26701;47.408;19.174;2023-03-01T22:15:43;5.40;98.50
40972;DHT22;26701;47.408;19.174;2023-03-01T22:18:10;5.90;98.70
40972;DHT22;26701;47.408;19.174;2023-03-01T22:20:37;6.10;93.00
40972;DHT22;26701;47.408;19.174;2023-03-01T22:23:03;5.90;98.40
40972;DHT22;26701;47.408;19.174;2023-03-01T22:27:55;5.30;98.10
40972;DHT22;26701;47.408;19.174;2023-03-01T22:30:21;5.40;90.50